sensor_id;sensor_type;location;lat;lon;timestamp;P1;durP1;ratioP1;P2;durP2;ratioP2
13349;SDS011;6744;53.190;6.576;2023-04-24T00:00:18;2.70;;;2.50;;
13349;SDS011;6744;53.190;6.576;2023-04-24T00:02:43;2.83;;;2.63;;
13349;SDS011;6744;53.190;6.576;2023-04-24T00:05:16;3.57;;;3.27;;
13349;SDS011;6744;53.190;6.576;2023-04-24T00:07:42;5.53;;;5.03;;
13349;SDS011;6744;53.190;6.576;2023-04-24T00:10:08;4.03;;;3.70;;
13349;SDS011;6744;53.190;6.576;2023-04-24T00:12:34;4.83;;;4.43;;
13349;SDS011;6744;53.190;6.576;2023-04-24T00:14:59;4.43;;;4.03;;
13349;SDS011;6744;53.190;6.576;2023-04-24T00:17:25;5.73;;;5.23;;
13349;SDS011;6744;53.190;6.576;2023-04-24T00:19:50;4.70;;;4.30;;
13349;SDS011;6744;53.190;6.576;2023-04-24T00:22:16;4.90;;;4.07;;
13349;SDS011;6744;53.190;6.576;2023-04-24T00:24:42;5.23;;;4.67;;
13349;SDS011;6744;53.190;6.576;2023-04-24T00:27:07;3.80;;;3.50;;
13349;SDS011;6744;53.190;6.576;2023-04-24T00:29:33;4.47;;;3.63;;
13349;SDS011;6744;53.190;6.576;2023-04-24T00:31:58;2.37;;;1.70;;
13349;SDS011;6744;53.190;6.576;2023-04-24T00:34:23;1.73;;;1.63;;
13349;SDS011;6744;53.190;6.576;2023-04-24T00:36:49;1.30;;;1.20;;
13349;SDS011;6744;53.190;6.576;2023-04-24T00:39:17;1.10;;;1.00;;
13349;SDS011;6744;53.190;6.576;2023-04-24T00:41:46;0.90;;;0.90;;
13349;SDS011;6744;53.190;6.576;2023-04-24T00:44:13;0.80;;;0.80;;
13349;SDS011;6744;53.190;6.576;2023-04-24T00:46:38;0.80;;;0.80;;
13349;SDS011;6744;53.190;6.576;2023-04-24T00:49:04;1.43;;;0.80;;
13349;SDS011;6744;53.190;6.576;2023-04-24T00:51:30;2.10;;;0.90;;
13349;SDS011;6744;53.190;6.576;2023-04-24T00:53:57;1.20;;;1.10;;
13349;SDS011;6744;53.190;6.576;2023-04-24T00:56:23;0.80;;;0.80;;
13349;SDS011;6744;53.190;6.576;2023-04-24T00:58:49;0.70;;;0.70;;
13349;SDS011;6744;53.190;6.576;2023-04-24T01:01:14;0.80;;;0.80;;
13349;SDS011;6744;53.190;6.576;2023-04-24T01:03:40;0.80;;;0.80;;
13349;SDS011;6744;53.190;6.576;2023-04-24T01:06:05;1.17;;;1.10;;
13349;SDS011;6744;53.190;6.576;2023-04-24T01:08:31;0.70;;;0.70;;
13349;SDS011;6744;53.190;6.576;2023-04-24T01:10:58;1.03;;;0.80;;
13349;SDS011;6744;53.190;6.576;2023-04-24T01:13:23;0.70;;;0.70;;
13349;SDS011;6744;53.190;6.576;2023-04-24T01:15:49;0.93;;;0.93;;
13349;SDS011;6744;53.190;6.576;2023-04-24T01:18:14;0.80;;;0.80;;
13349;SDS011;6744;53.190;6.576;2023-04-24T01:20:40;1.13;;;0.60;;
13349;SDS011;6744;53.190;6.576;2023-04-24T01:23:07;0.77;;;0.77;;
13349;SDS011;6744;53.190;6.576;2023-04-24T01:25:33;0.80;;;0.70;;
13349;SDS011;6744;53.190;6.576;2023-04-24T01:27:59;1.33;;;1.00;;
13349;SDS011;6744;53.190;6.576;2023-04-24T01:30:25;0.60;;;0.60;;
13349;SDS011;6744;53.190;6.576;2023-04-24T01:32:51;0.63;;;0.63;;
13349;SDS011;6744;53.190;6.576;2023-04-24T01:35:16;0.70;;;0.70;;
13349;SDS011;6744;53.190;6.576;2023-04-24T01:37:42;0.90;;;0.90;;
13349;SDS011;6744;53.190;6.576;2023-04-24T01:40:07;0.97;;;0.90;;
13349;SDS011;6744;53.190;6.576;2023-04-24T01:42:34;1.13;;;0.80;;
13349;SDS011;6744;53.190;6.576;2023-04-24T01:44:59;0.80;;;0.80;;
13349;SDS011;6744;53.190;6.576;2023-04-24T01:47:25;1.20;;;1.10;;
13349;SDS011;6744;53.190;6.576;2023-04-24T01:49:51;0.90;;;0.90;;
13349;SDS011;6744;53.190;6.576;2023-04-24T01:52:17;1.10;;;1.10;;
13349;SDS011;6744;53.190;6.576;2023-04-24T01:54:43;1.37;;;1.27;;
13349;SDS011;6744;53.190;6.576;2023-04-24T01:57:09;1.13;;;1.13;;
13349;SDS011;6744;53.190;6.576;2023-04-24T01:59:34;1.00;;;1.00;;
13349;SDS011;6744;53.190;6.576;2023-04-24T02:02:01;2.10;;;1.67;;
13349;SDS011;6744;53.190;6.576;2023-04-24T02:04:27;1.33;;;1.30;;
13349;SDS011;6744;53.190;6.576;2023-04-24T02:06:52;2.57;;;1.30;;
13349;SDS011;6744;53.190;6.576;2023-04-24T02:09:18;2.53;;;2.30;;
13349;SDS011;6744;53.190;6.576;2023-04-24T02:11:43;2.33;;;2.13;;
13349;SDS011;6744;53.190;6.576;2023-04-24T02:14:08;1.80;;;1.70;;
13349;SDS011;6744;53.190;6.576;2023-04-24T02:16:34;1.70;;;1.60;;
13349;SDS011;6744;53.190;6.576;2023-04-24T02:19:00;2.40;;;2.20;;
13349;SDS011;6744;53.190;6.576;2023-04-24T02:21:26;2.00;;;1.80;;
13349;SDS011;6744;53.190;6.576;2023-04-24T02:23:52;2.53;;;2.43;;
13349;SDS011;6744;53.190;6.576;2023-04-24T02:26:18;2.60;;;2.40;;
13349;SDS011;6744;53.190;6.576;2023-04-24T02:28:43;2.13;;;2.03;;
13349;SDS011;6744;53.190;6.576;2023-04-24T02:31:09;2.60;;;2.40;;
13349;SDS011;6744;53.190;6.576;2023-04-24T02:33:34;2.77;;;2.57;;
13349;SDS011;6744;53.190;6.576;2023-04-24T02:36:00;3.00;;;2.80;;
13349;SDS011;6744;53.190;6.576;2023-04-24T02:38:26;2.50;;;2.40;;
13349;SDS011;6744;53.190;6.576;2023-04-24T02:40:51;2.87;;;2.67;;
13349;SDS011;6744;53.190;6.576;2023-04-24T02:43:17;3.00;;;2.80;;
13349;SDS011;6744;53.190;6.576;2023-04-24T02:45:42;3.10;;;2.90;;
13349;SDS011;6744;53.190;6.576;2023-04-24T02:48:07;3.60;;;3.30;;
13349;SDS011;6744;53.190;6.576;2023-04-24T02:50:33;4.10;;;3.80;;
13349;SDS011;6744;53.190;6.576;2023-04-24T02:52:58;4.17;;;3.87;;
13349;SDS011;6744;53.190;6.576;2023-04-24T02:55:23;3.83;;;3.63;;
13349;SDS011;6744;53.190;6.576;2023-04-24T02:57:50;3.53;;;3.33;;
13349;SDS011;6744;53.190;6.576;2023-04-24T03:00:15;3.90;;;3.60;;
13349;SDS011;6744;53.190;6.576;2023-04-24T03:02:41;4.00;;;3.60;;
13349;SDS011;6744;53.190;6.576;2023-04-24T03:05:06;4.43;;;4.13;;
13349;SDS011;6744;53.190;6.576;2023-04-24T03:07:32;4.17;;;3.87;;
13349;SDS011;6744;53.190;6.576;2023-04-24T03:09:57;4.83;;;3.97;;
13349;SDS011;6744;53.190;6.576;2023-04-24T03:12:23;5.33;;;4.93;;
13349;SDS011;6744;53.190;6.576;2023-04-24T03:14:49;3.97;;;3.67;;
13349;SDS011;6744;53.190;6.576;2023-04-24T03:17:14;4.43;;;4.13;;
13349;SDS011;6744;53.190;6.576;2023-04-24T03:19:39;4.03;;;3.73;;
13349;SDS011;6744;53.190;6.576;2023-04-24T03:22:05;4.37;;;4.07;;
13349;SDS011;6744;53.190;6.576;2023-04-24T03:24:30;5.90;;;5.40;;
13349;SDS011;6744;53.190;6.576;2023-04-24T03:26:55;5.03;;;4.63;;
13349;SDS011;6744;53.190;6.576;2023-04-24T03:29:21;5.23;;;4.73;;
13349;SDS011;6744;53.190;6.576;2023-04-24T03:31:47;5.33;;;4.93;;
13349;SDS011;6744;53.190;6.576;2023-04-24T03:34:12;6.30;;;5.90;;
13349;SDS011;6744;53.190;6.576;2023-04-24T03:36:38;6.50;;;6.00;;
13349;SDS011;6744;53.190;6.576;2023-04-24T03:39:03;5.80;;;5.40;;
13349;SDS011;6744;53.190;6.576;2023-04-24T03:41:28;6.60;;;6.20;;
13349;SDS011;6744;53.190;6.576;2023-04-24T03:43:55;6.43;;;6.03;;
13349;SDS011;6744;53.190;6.576;2023-04-24T03:46:20;7.40;;;6.90;;
13349;SDS011;6744;53.190;6.576;2023-04-24T03:48:46;8.37;;;7.77;;
13349;SDS011;6744;53.190;6.576;2023-04-24T03:51:11;9.10;;;8.50;;
13349;SDS011;6744;53.190;6.576;2023-04-24T03:53:36;10.50;;;9.67;;
13349;SDS011;6744;53.190;6.576;2023-04-24T03:56:02;8.00;;;7.50;;
13349;SDS011;6744;53.190;6.576;2023-04-24T03:58:27;8.10;;;7.50;;
13349;SDS011;6744;53.190;6.576;2023-04-24T04:00:52;9.13;;;8.43;;
13349;SDS011;6744;53.190;6.576;2023-04-24T04:03:18;7.93;;;7.43;;
13349;SDS011;6744;53.190;6.576;2023-04-24T04:05:43;8.80;;;8.10;;
13349;SDS011;6744;53.190;6.576;2023-04-24T04:08:08;7.20;;;6.70;;
13349;SDS011;6744;53.190;6.576;2023-04-24T04:10:34;7.43;;;6.93;;
13349;SDS011;6744;53.190;6.576;2023-04-24T04:12:59;7.00;;;6.50;;
13349;SDS011;6744;53.190;6.576;2023-04-24T04:15:25;6.50;;;6.10;;
13349;SDS011;6744;53.190;6.576;2023-04-24T04:17:50;9.07;;;8.47;;
13349;SDS011;6744;53.190;6.576;2023-04-24T04:20:16;6.47;;;6.07;;
13349;SDS011;6744;53.190;6.576;2023-04-24T04:22:41;5.53;;;5.23;;
13349;SDS011;6744;53.190;6.576;2023-04-24T04:25:06;7.30;;;6.77;;
13349;SDS011;6744;53.190;6.576;2023-04-24T04:27:33;6.60;;;6.10;;
13349;SDS011;6744;53.190;6.576;2023-04-24T04:29:59;5.73;;;5.37;;
13349;SDS011;6744;53.190;6.576;2023-04-24T04:32:29;6.50;;;6.10;;
13349;SDS011;6744;53.190;6.576;2023-04-24T04:34:55;6.30;;;5.90;;
13349;SDS011;6744;53.190;6.576;2023-04-24T04:37:20;5.93;;;5.43;;
13349;SDS011;6744;53.190;6.576;2023-04-24T04:39:46;6.00;;;5.60;;
13349;SDS011;6744;53.190;6.576;2023-04-24T04:42:11;5.03;;;4.73;;
13349;SDS011;6744;53.190;6.576;2023-04-24T04:44:37;5.60;;;5.20;;
13349;SDS011;6744;53.190;6.576;2023-04-24T04:47:03;4.40;;;4.10;;
13349;SDS011;6744;53.190;6.576;2023-04-24T04:49:30;4.93;;;4.53;;
13349;SDS011;6744;53.190;6.576;2023-04-24T04:51:56;5.60;;;5.30;;
13349;SDS011;6744;53.190;6.576;2023-04-24T04:54:22;5.37;;;5.00;;
13349;SDS011;6744;53.190;6.576;2023-04-24T04:56:49;4.70;;;4.40;;
13349;SDS011;6744;53.190;6.576;2023-04-24T04:59:15;5.80;;;5.30;;
13349;SDS011;6744;53.190;6.576;2023-04-24T05:01:40;4.57;;;4.27;;
13349;SDS011;6744;53.190;6.576;2023-04-24T05:04:06;5.50;;;5.10;;
13349;SDS011;6744;53.190;6.576;2023-04-24T05:06:31;4.93;;;4.63;;
13349;SDS011;6744;53.190;6.576;2023-04-24T05:08:56;4.43;;;4.03;;
13349;SDS011;6744;53.190;6.576;2023-04-24T05:11:22;3.27;;;2.97;;
13349;SDS011;6744;53.190;6.576;2023-04-24T05:13:48;3.10;;;2.90;;
13349;SDS011;6744;53.190;6.576;2023-04-24T05:16:13;3.30;;;3.10;;
13349;SDS011;6744;53.190;6.576;2023-04-24T05:18:38;3.10;;;2.90;;
13349;SDS011;6744;53.190;6.576;2023-04-24T05:21:04;2.80;;;2.60;;
13349;SDS011;6744;53.190;6.576;2023-04-24T05:23:29;3.03;;;2.80;;
13349;SDS011;6744;53.190;6.576;2023-04-24T05:25:54;2.17;;;2.07;;
13349;SDS011;6744;53.190;6.576;2023-04-24T05:28:20;2.73;;;2.53;;
13349;SDS011;6744;53.190;6.576;2023-04-24T05:30:46;2.50;;;2.40;;
13349;SDS011;6744;53.190;6.576;2023-04-24T05:33:11;2.30;;;2.20;;
13349;SDS011;6744;53.190;6.576;2023-04-24T05:35:36;2.60;;;2.40;;
13349;SDS011;6744;53.190;6.576;2023-04-24T05:38:02;2.80;;;2.60;;
13349;SDS011;6744;53.190;6.576;2023-04-24T05:40:28;2.40;;;2.30;;
13349;SDS011;6744;53.190;6.576;2023-04-24T05:42:53;2.10;;;2.00;;
13349;SDS011;6744;53.190;6.576;2023-04-24T05:45:18;2.60;;;2.40;;
13349;SDS011;6744;53.190;6.576;2023-04-24T05:47:44;2.47;;;2.37;;
13349;SDS011;6744;53.190;6.576;2023-04-24T05:50:10;2.53;;;2.33;;
13349;SDS011;6744;53.190;6.576;2023-04-24T05:52:35;2.20;;;2.10;;
13349;SDS011;6744;53.190;6.576;2023-04-24T05:55:01;2.20;;;2.00;;
13349;SDS011;6744;53.190;6.576;2023-04-24T05:57:26;2.30;;;2.07;;
13349;SDS011;6744;53.190;6.576;2023-04-24T05:59:51;2.27;;;2.07;;
13349;SDS011;6744;53.190;6.576;2023-04-24T06:02:17;2.00;;;1.90;;
13349;SDS011;6744;53.190;6.576;2023-04-24T06:04:42;2.17;;;1.97;;
13349;SDS011;6744;53.190;6.576;2023-04-24T06:07:09;1.90;;;1.70;;
13349;SDS011;6744;53.190;6.576;2023-04-24T06:09:35;2.63;;;2.30;;
13349;SDS011;6744;53.190;6.576;2023-04-24T06:12:01;2.73;;;2.20;;
13349;SDS011;6744;53.190;6.576;2023-04-24T06:14:27;2.30;;;2.10;;
13349;SDS011;6744;53.190;6.576;2023-04-24T06:16:52;2.40;;;2.20;;
13349;SDS011;6744;53.190;6.576;2023-04-24T06:19:18;3.03;;;2.83;;
13349;SDS011;6744;53.190;6.576;2023-04-24T06:21:43;3.10;;;2.80;;
13349;SDS011;6744;53.190;6.576;2023-04-24T06:24:08;3.97;;;3.67;;
13349;SDS011;6744;53.190;6.576;2023-04-24T06:26:34;2.80;;;2.60;;
13349;SDS011;6744;53.190;6.576;2023-04-24T06:28:59;3.03;;;2.83;;
13349;SDS011;6744;53.190;6.576;2023-04-24T06:31:25;4.13;;;3.70;;
13349;SDS011;6744;53.190;6.576;2023-04-24T06:33:50;4.20;;;3.80;;
13349;SDS011;6744;53.190;6.576;2023-04-24T06:36:16;5.03;;;4.63;;
13349;SDS011;6744;53.190;6.576;2023-04-24T06:38:41;3.97;;;3.47;;
13349;SDS011;6744;53.190;6.576;2023-04-24T06:41:07;3.47;;;3.17;;
13349;SDS011;6744;53.190;6.576;2023-04-24T06:43:32;4.13;;;3.73;;
13349;SDS011;6744;53.190;6.576;2023-04-24T06:45:58;4.87;;;3.50;;
13349;SDS011;6744;53.190;6.576;2023-04-24T06:48:24;4.70;;;3.90;;
13349;SDS011;6744;53.190;6.576;2023-04-24T06:50:50;5.00;;;4.53;;
13349;SDS011;6744;53.190;6.576;2023-04-24T06:53:16;5.50;;;5.00;;
13349;SDS011;6744;53.190;6.576;2023-04-24T06:55:41;6.20;;;4.73;;
13349;SDS011;6744;53.190;6.576;2023-04-24T06:58:08;5.97;;;4.07;;
13349;SDS011;6744;53.190;6.576;2023-04-24T07:00:33;5.00;;;3.73;;
13349;SDS011;6744;53.190;6.576;2023-04-24T07:02:59;3.43;;;3.00;;
13349;SDS011;6744;53.190;6.576;2023-04-24T07:05:24;4.93;;;3.10;;
13349;SDS011;6744;53.190;6.576;2023-04-24T07:07:50;3.07;;;2.43;;
13349;SDS011;6744;53.190;6.576;2023-04-24T07:10:16;3.93;;;2.80;;
13349;SDS011;6744;53.190;6.576;2023-04-24T07:12:41;3.07;;;2.07;;
13349;SDS011;6744;53.190;6.576;2023-04-24T07:15:07;2.23;;;1.63;;
13349;SDS011;6744;53.190;6.576;2023-04-24T07:17:33;1.60;;;1.50;;
13349;SDS011;6744;53.190;6.576;2023-04-24T07:19:59;1.90;;;1.70;;
13349;SDS011;6744;53.190;6.576;2023-04-24T07:22:25;1.93;;;1.40;;
13349;SDS011;6744;53.190;6.576;2023-04-24T07:24:50;2.37;;;1.33;;
13349;SDS011;6744;53.190;6.576;2023-04-24T07:27:16;2.93;;;1.40;;
13349;SDS011;6744;53.190;6.576;2023-04-24T07:29:41;3.10;;;1.37;;
13349;SDS011;6744;53.190;6.576;2023-04-24T07:32:06;1.70;;;1.50;;
13349;SDS011;6744;53.190;6.576;2023-04-24T07:34:32;4.20;;;1.40;;
13349;SDS011;6744;53.190;6.576;2023-04-24T07:36:58;2.30;;;1.70;;
13349;SDS011;6744;53.190;6.576;2023-04-24T07:39:23;3.30;;;2.23;;
13349;SDS011;6744;53.190;6.576;2023-04-24T07:41:48;1.90;;;1.63;;
13349;SDS011;6744;53.190;6.576;2023-04-24T07:44:14;4.60;;;1.80;;
13349;SDS011;6744;53.190;6.576;2023-04-24T07:46:39;3.13;;;2.23;;
13349;SDS011;6744;53.190;6.576;2023-04-24T07:49:05;3.50;;;2.10;;
13349;SDS011;6744;53.190;6.576;2023-04-24T07:51:30;5.50;;;2.57;;
13349;SDS011;6744;53.190;6.576;2023-04-24T07:53:57;3.17;;;2.17;;
13349;SDS011;6744;53.190;6.576;2023-04-24T07:56:22;3.93;;;2.10;;
13349;SDS011;6744;53.190;6.576;2023-04-24T07:58:48;2.23;;;2.03;;
13349;SDS011;6744;53.190;6.576;2023-04-24T08:01:13;3.60;;;2.23;;
13349;SDS011;6744;53.190;6.576;2023-04-24T08:03:38;5.80;;;2.77;;
13349;SDS011;6744;53.190;6.576;2023-04-24T08:06:04;5.03;;;3.30;;
13349;SDS011;6744;53.190;6.576;2023-04-24T08:08:29;4.43;;;3.40;;
13349;SDS011;6744;53.190;6.576;2023-04-24T08:10:55;5.37;;;4.07;;
13349;SDS011;6744;53.190;6.576;2023-04-24T08:13:20;6.30;;;4.63;;
13349;SDS011;6744;53.190;6.576;2023-04-24T08:15:46;8.70;;;6.07;;
13349;SDS011;6744;53.190;6.576;2023-04-24T08:18:11;9.27;;;8.03;;
13349;SDS011;6744;53.190;6.576;2023-04-24T08:20:38;8.43;;;7.53;;
13349;SDS011;6744;53.190;6.576;2023-04-24T08:23:03;9.80;;;8.47;;
13349;SDS011;6744;53.190;6.576;2023-04-24T08:25:29;10.07;;;8.10;;
13349;SDS011;6744;53.190;6.576;2023-04-24T08:27:54;11.93;;;9.80;;
13349;SDS011;6744;53.190;6.576;2023-04-24T08:30:20;9.97;;;8.97;;
13349;SDS011;6744;53.190;6.576;2023-04-24T08:32:45;14.57;;;10.17;;
13349;SDS011;6744;53.190;6.576;2023-04-24T08:35:11;14.10;;;10.23;;
13349;SDS011;6744;53.190;6.576;2023-04-24T08:37:36;14.87;;;11.40;;
13349;SDS011;6744;53.190;6.576;2023-04-24T08:40:21;13.77;;;11.30;;
13349;SDS011;6744;53.190;6.576;2023-04-24T08:42:56;11.00;;;9.90;;
13349;SDS011;6744;53.190;6.576;2023-04-24T08:45:22;16.57;;;12.23;;
13349;SDS011;6744;53.190;6.576;2023-04-24T08:47:48;11.07;;;9.87;;
13349;SDS011;6744;53.190;6.576;2023-04-24T08:50:14;12.90;;;9.30;;
13349;SDS011;6744;53.190;6.576;2023-04-24T08:52:40;9.80;;;8.67;;
13349;SDS011;6744;53.190;6.576;2023-04-24T08:55:07;12.57;;;9.60;;
13349;SDS011;6744;53.190;6.576;2023-04-24T08:57:32;9.90;;;8.20;;
13349;SDS011;6744;53.190;6.576;2023-04-24T08:59:58;11.73;;;9.23;;
13349;SDS011;6744;53.190;6.576;2023-04-24T09:02:24;10.47;;;8.10;;
13349;SDS011;6744;53.190;6.576;2023-04-24T09:04:50;10.87;;;9.33;;
13349;SDS011;6744;53.190;6.576;2023-04-24T09:07:16;9.33;;;7.70;;
13349;SDS011;6744;53.190;6.576;2023-04-24T09:09:42;12.03;;;9.90;;
13349;SDS011;6744;53.190;6.576;2023-04-24T09:12:08;13.20;;;9.10;;
13349;SDS011;6744;53.190;6.576;2023-04-24T09:14:35;13.27;;;11.00;;
13349;SDS011;6744;53.190;6.576;2023-04-24T09:17:03;11.17;;;9.20;;
13349;SDS011;6744;53.190;6.576;2023-04-24T09:19:28;14.90;;;9.73;;
13349;SDS011;6744;53.190;6.576;2023-04-24T09:21:54;11.23;;;9.53;;
13349;SDS011;6744;53.190;6.576;2023-04-24T09:24:20;11.10;;;9.57;;
13349;SDS011;6744;53.190;6.576;2023-04-24T09:26:55;13.90;;;8.30;;
13349;SDS011;6744;53.190;6.576;2023-04-24T09:29:23;10.93;;;8.97;;
13349;SDS011;6744;53.190;6.576;2023-04-24T09:31:49;6.60;;;5.87;;
13349;SDS011;6744;53.190;6.576;2023-04-24T09:34:19;10.30;;;7.47;;
13349;SDS011;6744;53.190;6.576;2023-04-24T09:36:47;8.03;;;6.63;;
13349;SDS011;6744;53.190;6.576;2023-04-24T09:39:13;8.60;;;6.50;;
13349;SDS011;6744;53.190;6.576;2023-04-24T09:44:21;7.07;;;5.63;;
13349;SDS011;6744;53.190;6.576;2023-04-24T09:46:51;7.47;;;5.87;;
13349;SDS011;6744;53.190;6.576;2023-04-24T09:49:25;7.93;;;5.87;;
13349;SDS011;6744;53.190;6.576;2023-04-24T09:52:03;7.57;;;5.50;;
13349;SDS011;6744;53.190;6.576;2023-04-24T09:54:29;10.97;;;5.10;;
13349;SDS011;6744;53.190;6.576;2023-04-24T09:56:55;9.13;;;5.10;;
13349;SDS011;6744;53.190;6.576;2023-04-24T09:59:21;8.73;;;5.17;;
13349;SDS011;6744;53.190;6.576;2023-04-24T10:01:47;7.60;;;5.27;;
13349;SDS011;6744;53.190;6.576;2023-04-24T10:04:32;9.13;;;5.20;;
13349;SDS011;6744;53.190;6.576;2023-04-24T10:06:57;8.87;;;4.87;;
13349;SDS011;6744;53.190;6.576;2023-04-24T10:09:23;6.70;;;4.10;;
13349;SDS011;6744;53.190;6.576;2023-04-24T10:11:53;6.97;;;4.30;;
13349;SDS011;6744;53.190;6.576;2023-04-24T10:14:20;5.53;;;4.13;;
13349;SDS011;6744;53.190;6.576;2023-04-24T10:16:47;6.70;;;4.30;;
13349;SDS011;6744;53.190;6.576;2023-04-24T10:19:13;5.37;;;3.40;;
13349;SDS011;6744;53.190;6.576;2023-04-24T10:21:40;4.23;;;2.20;;
13349;SDS011;6744;53.190;6.576;2023-04-24T10:24:14;5.63;;;2.40;;
13349;SDS011;6744;53.190;6.576;2023-04-24T10:26:41;4.77;;;2.70;;
13349;SDS011;6744;53.190;6.576;2023-04-24T10:29:07;5.03;;;2.53;;
13349;SDS011;6744;53.190;6.576;2023-04-24T10:31:34;5.73;;;2.93;;
13349;SDS011;6744;53.190;6.576;2023-04-24T10:34:01;7.17;;;2.73;;
13349;SDS011;6744;53.190;6.576;2023-04-24T10:36:26;6.77;;;2.73;;
13349;SDS011;6744;53.190;6.576;2023-04-24T10:38:53;6.00;;;2.73;;
13349;SDS011;6744;53.190;6.576;2023-04-24T10:41:19;4.03;;;2.50;;
13349;SDS011;6744;53.190;6.576;2023-04-24T10:43:48;6.40;;;2.43;;
13349;SDS011;6744;53.190;6.576;2023-04-24T10:46:21;7.47;;;2.53;;
13349;SDS011;6744;53.190;6.576;2023-04-24T10:48:53;5.03;;;2.37;;
13349;SDS011;6744;53.190;6.576;2023-04-24T10:51:21;5.27;;;2.33;;
13349;SDS011;6744;53.190;6.576;2023-04-24T10:53:47;8.07;;;2.47;;
13349;SDS011;6744;53.190;6.576;2023-04-24T10:56:15;6.43;;;2.40;;
13349;SDS011;6744;53.190;6.576;2023-04-24T10:58:42;5.27;;;2.33;;
13349;SDS011;6744;53.190;6.576;2023-04-24T11:04:01;6.43;;;2.00;;
13349;SDS011;6744;53.190;6.576;2023-04-24T11:06:34;5.63;;;2.20;;
13349;SDS011;6744;53.190;6.576;2023-04-24T11:09:05;5.57;;;1.73;;
13349;SDS011;6744;53.190;6.576;2023-04-24T11:11:32;4.87;;;1.73;;
13349;SDS011;6744;53.190;6.576;2023-04-24T11:21:45;3.87;;;2.17;;
13349;SDS011;6744;53.190;6.576;2023-04-24T11:24:23;4.97;;;2.07;;
13349;SDS011;6744;53.190;6.576;2023-04-24T11:26:48;6.07;;;1.80;;
13349;SDS011;6744;53.190;6.576;2023-04-24T11:29:13;5.83;;;1.93;;
13349;SDS011;6744;53.190;6.576;2023-04-24T11:31:40;5.60;;;1.87;;
13349;SDS011;6744;53.190;6.576;2023-04-24T11:34:13;4.87;;;1.77;;
13349;SDS011;6744;53.190;6.576;2023-04-24T11:36:39;4.17;;;1.63;;
13349;SDS011;6744;53.190;6.576;2023-04-24T11:39:07;5.63;;;1.80;;
13349;SDS011;6744;53.190;6.576;2023-04-24T11:41:33;4.60;;;1.70;;
13349;SDS011;6744;53.190;6.576;2023-04-24T11:43:59;3.30;;;1.20;;
13349;SDS011;6744;53.190;6.576;2023-04-24T11:46:30;3.67;;;1.40;;
13349;SDS011;6744;53.190;6.576;2023-04-24T11:48:57;3.77;;;1.60;;
13349;SDS011;6744;53.190;6.576;2023-04-24T11:51:23;4.00;;;1.40;;
13349;SDS011;6744;53.190;6.576;2023-04-24T11:53:50;6.13;;;1.70;;
13349;SDS011;6744;53.190;6.576;2023-04-24T11:56:19;4.00;;;1.20;;
13349;SDS011;6744;53.190;6.576;2023-04-24T11:58:45;2.10;;;1.10;;
13349;SDS011;6744;53.190;6.576;2023-04-24T12:01:11;4.07;;;1.43;;
13349;SDS011;6744;53.190;6.576;2023-04-24T12:03:37;4.63;;;1.57;;
13349;SDS011;6744;53.190;6.576;2023-04-24T12:06:06;4.10;;;1.00;;
13349;SDS011;6744;53.190;6.576;2023-04-24T12:08:33;5.13;;;1.53;;
13349;SDS011;6744;53.190;6.576;2023-04-24T12:11:03;4.67;;;1.20;;
13349;SDS011;6744;53.190;6.576;2023-04-24T12:13:30;3.97;;;1.20;;
13349;SDS011;6744;53.190;6.576;2023-04-24T12:15:59;3.80;;;1.30;;
13349;SDS011;6744;53.190;6.576;2023-04-24T12:18:25;4.73;;;1.30;;
13349;SDS011;6744;53.190;6.576;2023-04-24T12:20:51;3.80;;;1.17;;
13349;SDS011;6744;53.190;6.576;2023-04-24T12:23:16;3.70;;;1.20;;
13349;SDS011;6744;53.190;6.576;2023-04-24T12:25:42;4.87;;;1.30;;
13349;SDS011;6744;53.190;6.576;2023-04-24T12:28:09;3.50;;;1.40;;
13349;SDS011;6744;53.190;6.576;2023-04-24T12:30:40;2.73;;;1.07;;
13349;SDS011;6744;53.190;6.576;2023-04-24T12:33:07;2.37;;;0.93;;
13349;SDS011;6744;53.190;6.576;2023-04-24T12:35:33;2.77;;;1.10;;
13349;SDS011;6744;53.190;6.576;2023-04-24T12:38:10;2.87;;;1.00;;
13349;SDS011;6744;53.190;6.576;2023-04-24T12:40:37;2.07;;;0.73;;
13349;SDS011;6744;53.190;6.576;2023-04-24T12:43:12;3.07;;;0.77;;
13349;SDS011;6744;53.190;6.576;2023-04-24T12:45:43;3.47;;;0.80;;
13349;SDS011;6744;53.190;6.576;2023-04-24T12:48:12;2.10;;;0.73;;
13349;SDS011;6744;53.190;6.576;2023-04-24T12:50:38;4.70;;;0.73;;
13349;SDS011;6744;53.190;6.576;2023-04-24T12:53:04;3.07;;;0.80;;
13349;SDS011;6744;53.190;6.576;2023-04-24T12:55:29;1.63;;;0.80;;
13349;SDS011;6744;53.190;6.576;2023-04-24T12:57:55;2.00;;;0.70;;
13349;SDS011;6744;53.190;6.576;2023-04-24T13:00:21;2.67;;;0.80;;
13349;SDS011;6744;53.190;6.576;2023-04-24T13:02:46;3.10;;;1.00;;
13349;SDS011;6744;53.190;6.576;2023-04-24T13:05:12;1.60;;;0.60;;
13349;SDS011;6744;53.190;6.576;2023-04-24T13:07:38;4.23;;;0.90;;
13349;SDS011;6744;53.190;6.576;2023-04-24T13:10:04;2.63;;;1.17;;
13349;SDS011;6744;53.190;6.576;2023-04-24T13:12:30;3.50;;;1.00;;
13349;SDS011;6744;53.190;6.576;2023-04-24T13:14:55;1.60;;;0.77;;
13349;SDS011;6744;53.190;6.576;2023-04-24T13:17:21;4.00;;;0.80;;
13349;SDS011;6744;53.190;6.576;2023-04-24T13:19:49;3.07;;;0.80;;
13349;SDS011;6744;53.190;6.576;2023-04-24T13:22:15;3.23;;;0.80;;
13349;SDS011;6744;53.190;6.576;2023-04-24T13:24:40;4.80;;;1.00;;
13349;SDS011;6744;53.190;6.576;2023-04-24T13:27:06;2.73;;;0.93;;
13349;SDS011;6744;53.190;6.576;2023-04-24T13:29:32;2.57;;;0.87;;
13349;SDS011;6744;53.190;6.576;2023-04-24T13:31:57;2.73;;;1.17;;
13349;SDS011;6744;53.190;6.576;2023-04-24T13:34:23;3.33;;;0.80;;
13349;SDS011;6744;53.190;6.576;2023-04-24T13:36:50;3.40;;;0.83;;
13349;SDS011;6744;53.190;6.576;2023-04-24T13:39:19;1.50;;;0.50;;
13349;SDS011;6744;53.190;6.576;2023-04-24T13:41:45;1.53;;;0.60;;
13349;SDS011;6744;53.190;6.576;2023-04-24T13:44:12;2.63;;;0.63;;
13349;SDS011;6744;53.190;6.576;2023-04-24T13:46:37;1.57;;;0.60;;
13349;SDS011;6744;53.190;6.576;2023-04-24T13:49:03;2.53;;;0.60;;
13349;SDS011;6744;53.190;6.576;2023-04-24T13:51:30;1.43;;;0.50;;
13349;SDS011;6744;53.190;6.576;2023-04-24T13:53:58;1.60;;;0.50;;
13349;SDS011;6744;53.190;6.576;2023-04-24T13:56:24;1.77;;;0.60;;
13349;SDS011;6744;53.190;6.576;2023-04-24T13:58:49;0.87;;;0.50;;
13349;SDS011;6744;53.190;6.576;2023-04-24T14:01:15;2.60;;;0.73;;
13349;SDS011;6744;53.190;6.576;2023-04-24T14:03:41;1.47;;;0.50;;
13349;SDS011;6744;53.190;6.576;2023-04-24T14:06:06;4.30;;;0.90;;
13349;SDS011;6744;53.190;6.576;2023-04-24T14:08:32;2.33;;;1.10;;
13349;SDS011;6744;53.190;6.576;2023-04-24T14:10:57;1.43;;;0.93;;
13349;SDS011;6744;53.190;6.576;2023-04-24T14:13:22;2.83;;;0.97;;
13349;SDS011;6744;53.190;6.576;2023-04-24T14:15:48;4.07;;;1.27;;
13349;SDS011;6744;53.190;6.576;2023-04-24T14:18:13;3.77;;;1.20;;
13349;SDS011;6744;53.190;6.576;2023-04-24T14:20:39;4.30;;;1.47;;
13349;SDS011;6744;53.190;6.576;2023-04-24T14:23:05;4.93;;;1.33;;
13349;SDS011;6744;53.190;6.576;2023-04-24T14:25:30;4.03;;;1.50;;
13349;SDS011;6744;53.190;6.576;2023-04-24T14:27:55;3.80;;;1.40;;
13349;SDS011;6744;53.190;6.576;2023-04-24T14:30:21;4.17;;;1.53;;
13349;SDS011;6744;53.190;6.576;2023-04-24T14:32:46;4.60;;;1.40;;
13349;SDS011;6744;53.190;6.576;2023-04-24T14:35:12;4.13;;;1.70;;
13349;SDS011;6744;53.190;6.576;2023-04-24T14:37:37;6.33;;;1.70;;
13349;SDS011;6744;53.190;6.576;2023-04-24T14:40:03;4.83;;;1.37;;
13349;SDS011;6744;53.190;6.576;2023-04-24T14:42:31;5.63;;;1.70;;
13349;SDS011;6744;53.190;6.576;2023-04-24T14:44:56;3.97;;;1.50;;
13349;SDS011;6744;53.190;6.576;2023-04-24T14:47:22;5.00;;;1.50;;
13349;SDS011;6744;53.190;6.576;2023-04-24T14:49:47;3.63;;;1.60;;
13349;SDS011;6744;53.190;6.576;2023-04-24T14:52:13;3.33;;;1.30;;
13349;SDS011;6744;53.190;6.576;2023-04-24T14:54:38;3.77;;;1.30;;
13349;SDS011;6744;53.190;6.576;2023-04-24T14:57:04;4.27;;;1.30;;
13349;SDS011;6744;53.190;6.576;2023-04-24T14:59:29;4.00;;;1.50;;
13349;SDS011;6744;53.190;6.576;2023-04-24T15:01:56;5.40;;;1.43;;
13349;SDS011;6744;53.190;6.576;2023-04-24T15:04:23;3.30;;;1.57;;
13349;SDS011;6744;53.190;6.576;2023-04-24T15:06:50;4.93;;;1.90;;